Time;durP1;ratioP1;P1;durP2;ratioP2;P2;SDS_P1;SDS_P2;PMS_P1;PMS_P2;Temp;Humidity;BMP_temperature;BMP_pressure;BME280_temperature;BME280_humidity;BME280_pressure;Samples;Min_cycle;Max_cycle;Signal;HPM_P1;HPM_P2
2021/04/22 00:09:58;;;;;;;5.70;1.37;;;12.40;56.80;;;;;;20872268;28;20127;-80
2021/04/22 00:19:59;;;;;;;9.55;1.98;;;12.40;56.80;;;;;;20905285;28;20692;-77
2021/04/22 00:30:01;;;;;;;3.75;1.23;;;12.40;56.80;;;;;;20904559;28;20533;-78
2021/04/22 00:40:07;;;;;;;5.00;1.48;;;12.40;56.80;;;;;;20875645;28;20045;-78
2021/04/22 00:50:10;;;;;;;5.90;1.87;;;12.40;56.70;;;;;;20902319;28;20033;-78
2021/04/22 01:00:13;;;;;;;4.47;1.90;;;12.40;56.70;;;;;;20884959;28;20398;-77
2021/04/22 01:10:15;;;;;;;5.63;1.42;;;12.30;56.60;;;;;;20869223;28;20036;-78
2021/04/22 01:20:20;;;;;;;3.60;1.67;;;12.30;56.50;;;;;;20900196;28;20655;-78
2021/04/22 01:30:29;;;;;;;8.38;1.65;;;12.30;56.40;;;;;;20866365;28;20390;-78
2021/04/22 01:40:29;;;;;;;7.00;1.50;;;12.30;56.40;;;;;;20898543;28;20056;-78
2021/04/22 01:50:31;;;;;;;6.20;1.60;;;12.30;56.40;;;;;;20897253;28;20039;-78
2021/04/22 02:00:38;;;;;;;3.65;1.50;;;12.30;56.30;;;;;;20880670;28;20049;-79
2021/04/22 02:10:38;;;;;;;7.18;1.50;;;12.20;56.10;;;;;;20912879;28;20036;-77
2021/04/22 02:20:39;;;;;;;9.07;2.35;;;12.20;56.10;;;;;;20894906;28;20032;-79
2021/04/22 02:30:41;;;;;;;3.50;1.42;;;12.30;56.00;;;;;;20894182;28;20075;-78
2021/04/22 02:40:43;;;;;;;8.20;1.98;;;12.20;55.90;;;;;;20876808;28;20053;-77
2021/04/22 02:50:47;;;;;;;5.20;1.75;;;12.20;55.80;;;;;;20892431;28;20037;-77
2021/04/22 03:00:48;;;;;;;4.93;2.05;;;12.10;55.50;;;;;;20858179;28;20067;-78
2021/04/22 03:10:49;;;;;;;2.55;2.03;;;12.10;55.50;;;;;;20874313;28;20033;-79
2021/04/22 03:20:51;;;;;;;6.85;1.83;;;12.20;55.40;;;;;;20890797;28;20123;-79
2021/04/22 03:30:53;;;;;;;4.40;1.85;;;12.10;55.20;;;;;;20889977;28;20508;-78
2021/04/22 03:40:56;;;;;;;3.92;1.35;;;12.10;55.10;;;;;;20906510;28;20501;-78
2021/04/22 03:50:59;;;;;;;4.97;1.38;;;12.10;55.00;;;;;;20906955;28;20029;-78
2021/04/22 04:01:01;;;;;;;8.75;1.90;;;12.00;54.80;;;;;;20873337;28;20060;-77
2021/04/22 04:11:02;;;;;;;5.75;1.65;;;12.00;54.70;;;;;;20905996;28;20488;-78
2021/04/22 04:21:04;;;;;;;12.30;2.30;;;12.00;54.80;;;;;;20904861;28;20041;-81
2021/04/22 04:31:05;;;;;;;6.25;2.10;;;12.00;54.70;;;;;;20891385;28;20037;-78
2021/04/22 04:41:06;;;;;;;9.77;2.22;;;12.10;54.70;;;;;;20891334;28;20140;-80
2021/04/22 04:51:06;;;;;;;4.70;1.73;;;12.00;54.70;;;;;;20907742;28;20048;-82
2021/04/22 05:01:07;;;;;;;4.90;2.15;;;12.00;54.70;;;;;;20887390;28;20067;-77
2021/04/22 05:11:08;;;;;;;10.65;2.38;;;11.90;54.40;;;;;;20882252;28;20039;-72
2021/04/22 05:21:08;;;;;;;6.07;1.63;;;11.90;54.40;;;;;;20871767;28;20038;-72
2021/04/22 05:31:09;;;;;;;10.20;2.08;;;11.90;54.30;;;;;;20867747;28;20226;-73
2021/04/22 05:41:10;;;;;;;9.73;1.80;;;11.90;54.30;;;;;;20890620;28;20045;-71
2021/04/22 05:51:10;;;;;;;10.40;1.90;;;11.90;54.30;;;;;;20878167;28;20147;-72
2021/04/22 06:01:11;;;;;;;8.07;1.90;;;11.80;54.20;;;;;;20877474;28;20043;-77
2021/04/22 06:11:12;;;;;;;9.82;2.17;;;11.90;54.30;;;;;;20860829;28;20630;-76
2021/04/22 06:21:13;;;;;;;5.15;1.65;;;11.80;54.30;;;;;;20852256;28;20044;-76
2021/04/22 06:31:14;;;;;;;8.80;2.40;;;11.80;54.20;;;;;;20877396;28;20045;-76
2021/04/22 06:41:15;;;;;;;9.82;2.00;;;11.80;54.20;;;;;;20891515;28;20386;-78
2021/04/22 06:51:15;;;;;;;7.32;1.90;;;11.80;54.10;;;;;;20823975;28;20079;-77
2021/04/22 07:01:17;;;;;;;7.15;1.77;;;11.80;54.10;;;;;;20878872;28;20029;-77
2021/04/22 07:11:18;;;;;;;12.38;1.80;;;11.80;54.80;;;;;;20875387;28;20037;-77
2021/04/22 07:21:20;;;;;;;7.72;2.00;;;11.80;54.10;;;;;;20878227;28;20040;-79
2021/04/22 07:31:20;;;;;;;6.95;1.92;;;11.80;54.00;;;;;;20877795;28;20065;-78
2021/04/22 07:41:23;;;;;;;8.30;1.40;;;11.80;54.00;;;;;;20861654;28;20397;-78
2021/04/22 07:51:25;;;;;;;4.95;1.65;;;11.80;53.90;;;;;;20877235;28;20510;-78
2021/04/22 08:01:27;;;;;;;4.30;1.42;;;11.80;53.90;;;;;;20877436;28;20055;-78
2021/04/22 08:11:31;;;;;;;6.60;1.42;;;11.80;54.00;;;;;;20876965;28;20041;-77
2021/04/22 08:21:32;;;;;;;5.25;1.73;;;11.80;54.00;;;;;;20875706;28;20040;-78
2021/04/22 08:31:35;;;;;;;4.40;1.30;;;11.80;54.00;;;;;;20874978;28;20057;-77
2021/04/22 08:41:39;;;;;;;6.88;1.23;;;11.80;54.00;;;;;;21292276;23;20140;-77
2021/04/22 08:51:46;;;;;;;5.50;1.80;;;11.80;53.90;;;;;;20935155;28;20107;-77
2021/04/22 09:01:49;;;;;;;4.13;1.52;;;11.80;54.00;;;;;;20944484;28;20056;-78
2021/04/22 09:11:52;;;;;;;9.65;2.08;;;11.80;54.00;;;;;;20905752;28;20108;-78
2021/04/22 09:21:55;;;;;;;7.18;1.40;;;11.80;53.90;;;;;;20905912;28;20124;-77
2021/04/22 09:32:19;;;;;;;2.35;1.25;;;11.80;53.90;;;;;;20888941;28;20033;-78
2021/04/22 09:42:21;;;;;;;11.90;1.40;;;11.80;53.90;;;;;;20939443;28;20131;-77
2021/04/22 09:52:23;;;;;;;11.10;1.80;;;11.80;54.00;;;;;;20960655;28;20028;-79
2021/04/22 10:02:26;;;;;;;7.05;1.63;;;11.80;53.70;;;;;;20967173;28;20052;-77
2021/04/22 10:12:34;;;;;;;6.55;1.42;;;11.80;53.50;;;;;;20891093;28;20033;-76
2021/04/22 10:22:38;;;;;;;4.80;1.48;;;11.80;53.20;;;;;;20943073;28;20040;-75
2021/04/22 10:32:39;;;;;;;5.63;1.42;;;11.80;53.00;;;;;;20965690;28;20127;-81
2021/04/22 10:42:46;;;;;;;6.18;1.40;;;11.80;53.10;;;;;;20956321;28;20094;-78
2021/04/22 10:52:48;;;;;;;9.15;1.40;;;11.80;52.90;;;;;;20883030;28;20049;-76
2021/04/22 11:02:52;;;;;;;12.60;2.00;;;11.70;52.70;;;;;;20880395;28;20049;-77
2021/04/22 11:12:53;;;;;;;10.05;2.28;;;11.70;52.50;;;;;;20919982;28;20040;-80
2021/04/22 11:22:56;;;;;;;9.95;1.80;;;11.70;52.20;;;;;;20920127;28;20037;-77
2021/04/22 11:32:59;;;;;;;5.38;1.40;;;11.70;52.10;;;;;;20875407;28;20064;-77
2021/04/22 11:43:01;;;;;;;6.93;1.15;;;11.70;51.70;;;;;;20878392;28;20053;-78
2021/04/22 11:53:04;;;;;;;2.45;1.02;;;11.70;51.40;;;;;;20851667;28;20380;-77
2021/04/22 12:03:10;;;;;;;6.38;1.70;;;11.70;51.20;;;;;;20890725;28;20045;-78
2021/04/22 12:13:16;;;;;;;6.68;1.85;;;11.70;50.90;;;;;;20901190;28;20036;-78
2021/04/22 12:23:29;;;;;;;6.80;1.65;;;11.80;50.40;;;;;;20924633;28;20050;-78
2021/04/22 12:33:31;;;;;;;14.23;2.47;;;11.70;49.80;;;;;;20934896;28;20037;-78
2021/04/22 12:43:33;;;;;;;10.32;2.00;;;11.70;49.40;;;;;;20963620;28;20101;-78
2021/04/22 12:53:41;;;;;;;10.23;2.33;;;11.70;49.20;;;;;;20948333;28;20040;-78
2021/04/22 13:03:47;;;;;;;6.90;1.77;;;11.70;49.20;;;;;;20907142;28;20422;-78
2021/04/22 13:13:53;;;;;;;6.67;1.97;;;11.80;49.00;;;;;;20928228;28;20044;-78
2021/04/22 13:23:56;;;;;;;3.03;1.80;;;11.80;49.00;;;;;;20935671;28;20036;-78
2021/04/22 13:34:36;;;;;;;8.13;1.92;;;12.00;49.20;;;;;;20941087;28;20425;-75
2021/04/22 13:44:38;;;;;;;4.30;2.00;;;11.80;49.20;;;;;;20933342;28;20451;-77
2021/04/22 13:54:44;;;;;;;7.28;1.83;;;11.80;49.40;;;;;;20966015;28;20691;-78
2021/04/22 14:04:47;;;;;;;7.30;1.70;;;11.80;49.50;;;;;;20945756;28;20029;-77
2021/04/22 14:14:48;;;;;;;3.47;1.52;;;12.00;49.70;;;;;;20935521;28;20037;-75
2021/04/22 14:24:48;;;;;;;3.00;0.95;;;11.80;49.90;;;;;;20909075;28;20039;-77
2021/04/22 14:34:49;;;;;;;3.95;2.08;;;11.80;50.20;;;;;;20919830;28;20091;-79
2021/04/22 14:44:58;;;;;;;3.38;1.38;;;11.80;50.50;;;;;;20930808;28;20032;-78
2021/04/22 14:54:59;;;;;;;4.82;1.65;;;11.80;50.70;;;;;;20940594;28;20058;-75
2021/04/22 15:05:02;;;;;;;5.22;1.65;;;11.80;50.80;;;;;;20890590;28;20150;-75
2021/04/22 15:15:03;;;;;;;4.63;1.95;;;11.80;51.10;;;;;;20993942;28;20033;-75
2021/04/22 15:25:06;;;;;;;5.95;2.63;;;11.90;51.40;;;;;;20990238;28;20484;-75
2021/04/22 15:35:11;;;;;;;4.82;2.05;;;11.90;51.50;;;;;;21060127;28;20389;-78
2021/04/22 15:45:13;;;;;;;7.50;2.30;;;11.90;51.60;;;;;;21043728;28;20052;-75
2021/04/22 15:55:14;;;;;;;3.30;1.33;;;11.90;51.80;;;;;;21027427;28;20062;-78
2021/04/22 16:05:14;;;;;;;5.63;1.75;;;11.90;52.00;;;;;;21014959;28;20123;-84
2021/04/22 16:15:15;;;;;;;5.53;2.47;;;11.90;52.00;;;;;;20861068;28;20075;-76
2021/04/22 16:25:16;;;;;;;6.03;1.60;;;11.90;51.90;;;;;;20886325;28;20060;-81
2021/04/22 16:35:17;;;;;;;9.48;2.03;;;11.90;52.20;;;;;;20886211;28;20383;-75
2021/04/22 16:45:18;;;;;;;1.80;1.50;;;12.00;52.20;;;;;;20883079;28;20406;-74
2021/04/22 16:55:21;;;;;;;3.92;1.95;;;12.10;52.00;;;;;;20921644;28;20123;-80
2021/04/22 17:05:32;;;;;;;6.93;1.67;;;12.10;52.00;;;;;;20928416;28;20045;-79
2021/04/22 17:15:33;;;;;;;4.47;1.80;;;12.20;51.80;;;;;;20952037;28;20047;-78
2021/04/22 17:25:33;;;;;;;1.65;1.00;;;12.10;51.70;;;;;;20951893;28;20391;-74
2021/04/22 17:35:34;;;;;;;6.43;1.47;;;12.10;51.70;;;;;;20970628;28;20044;-76
2021/04/22 17:45:36;;;;;;;5.32;1.60;;;12.10;51.70;;;;;;20953230;28;20283;-75
2021/04/22 17:55:36;;;;;;;5.25;1.65;;;12.10;51.70;;;;;;20953011;28;20036;-78
2021/04/22 18:05:48;;;;;;;4.28;1.27;;;12.00;51.70;;;;;;20950470;28;20038;-78
2021/04/22 18:15:48;;;;;;;7.72;2.13;;;12.00;51.80;;;;;;20967767;28;20040;-77
2021/04/22 18:25:50;;;;;;;5.63;2.30;;;11.90;52.20;;;;;;20912860;28;20055;-76
2021/04/22 18:35:52;;;;;;;4.47;1.77;;;11.90;52.50;;;;;;20961928;28;20041;-77
2021/04/22 18:45:53;;;;;;;5.38;1.73;;;11.90;52.70;;;;;;20964305;28;20033;-77
2021/04/22 18:55:53;;;;;;;6.28;2.05;;;11.90;52.90;;;;;;20865233;28;20375;-76
2021/04/22 19:05:56;;;;;;;9.27;1.73;;;11.90;53.10;;;;;;20881782;28;20043;-79
2021/04/22 19:15:58;;;;;;;1.80;1.60;;;11.90;53.20;;;;;;20922678;28;20131;-78
2021/04/22 19:25:59;;;;;;;3.13;1.70;;;11.80;53.20;;;;;;20945558;28;20094;-79
2021/04/22 19:36:01;;;;;;;3.83;1.48;;;11.80;53.40;;;;;;20978612;28;20119;-79
2021/04/22 19:46:03;;;;;;;4.65;1.60;;;11.80;53.40;;;;;;20899717;28;20453;-79
2021/04/22 19:56:04;;;;;;;3.90;1.58;;;11.80;53.50;;;;;;20861764;28;20466;-78
2021/04/22 20:06:10;;;;;;;6.25;1.42;;;11.70;53.50;;;;;;20861200;28;20090;-79
2021/04/22 20:16:24;;;;;;;4.88;2.38;;;11.70;53.50;;;;;;20922687;28;20045;-82
2021/04/22 20:26:26;;;;;;;4.47;1.67;;;11.70;53.60;;;;;;20895033;28;20045;-78
2021/04/22 20:36:27;;;;;;;7.82;2.13;;;11.70;53.70;;;;;;20893747;28;20434;-78
2021/04/22 20:46:28;;;;;;;3.03;1.73;;;11.70;53.80;;;;;;20876776;28;20040;-78
2021/04/22 20:56:30;;;;;;;5.75;1.80;;;11.70;53.80;;;;;;20897429;28;20457;-78
2021/04/22 21:06:32;;;;;;;3.97;1.80;;;11.70;53.90;;;;;;20891109;28;20033;-79
2021/04/22 21:16:33;;;;;;;3.22;2.08;;;11.70;54.60;;;;;;20890041;28;20036;-78
2021/04/22 21:26:55;;;;;;;4.72;2.38;;;11.60;54.00;;;;;;20889723;28;20034;-78
2021/04/22 21:36:56;;;;;;;4.07;1.88;;;11.60;54.10;;;;;;20921552;28;20044;-79
2021/04/22 21:46:58;;;;;;;5.32;1.67;;;11.70;54.10;;;;;;20903772;28;20400;-78
2021/04/22 21:56:59;;;;;;;3.75;2.20;;;11.60;54.20;;;;;;20904163;28;20036;-78
2021/04/22 22:07:02;;;;;;;8.60;2.50;;;11.60;54.40;;;;;;20901185;28;20398;-78
2021/04/22 22:17:03;;;;;;;6.45;2.33;;;11.50;54.40;;;;;;20917381;28;20028;-78
2021/04/22 22:27:05;;;;;;;6.55;3.28;;;11.60;54.50;;;;;;20901420;28;20037;-79
2021/04/22 22:37:10;;;;;;;5.20;2.20;;;11.60;54.60;;;;;;20883721;28;20044;-77
2021/04/22 22:47:11;;;;;;;4.00;2.42;;;11.50;54.70;;;;;;20899794;28;20043;-78
2021/04/22 22:57:13;;;;;;;5.60;2.47;;;11.60;54.80;;;;;;20881693;28;20041;-77
2021/04/22 23:07:14;;;;;;;5.75;2.63;;;11.50;54.90;;;;;;20914788;28;20060;-78
2021/04/22 23:17:16;;;;;;;9.70;2.97;;;11.50;54.90;;;;;;20896441;28;20029;-80
2021/04/22 23:27:17;;;;;;;6.90;3.00;;;11.50;55.00;;;;;;20896073;28;20045;-78
2021/04/22 23:37:18;;;;;;;6.13;2.67;;;11.50;55.10;;;;;;20879460;28;20378;-78
2021/04/22 23:47:20;;;;;;;6.85;2.60;;;11.50;55.20;;;;;;20912388;28;20391;-79
2021/04/22 23:57:22;;;;;;;5.32;2.53;;;11.50;55.20;;;;;;20895510;28;20036;-78
